(°C)
15°
15°
16°
16°
17°
18°
19°
(°C)
14°
14°
15°
16°
17°
18°
19°
JJV
J
J
J
JJZ
JJZ
JJZ
(km/h)
15-30
14-29
13-27
11-24
10-22
10-20
10-19
(mm)
0.6
0.7
0.6
0.3
0
0
0
(%)
87
91
69
48
22
18
14

Výška Slnka nad obzorom

/ -5.1°
sun-icon
UV 5
05:14
20:00
Zmenšujúci sa polmesiac (253°)
01:09
10:39

Správy METAR pre lokalitu Barnstable (KHYA)

Čas Podmienky Teplota/
Rosný bod
Vietor Viditeľnosť Počasie Oblaky Tlak Zmeniť Nespracované
LIFR 15°C / 14.4°C variable 5kt Gust 16kt 9700m Mist Vertical Visibility of 0ft.
Overcast 3700ft
- KHYA 210819Z AUTO VRB05G16KT 6SM BR BKN003 OVC037 15/14 A2998 RMK AO2 LTG DSNT SE T01500144
IFR 15.6°C / 14.4°C 150º 9kt Gust 16kt >10km - Broken Clouds 500ft
Broken Clouds 1700ft
Overcast 3700ft
- KHYA 210812Z AUTO 15009G16KT 7SM BKN005 BKN017 OVC037 16/14 A2998 RMK AO2 LTG DSNT SE AND S T01560144
MVFR 16.1°C / 15°C 150º variable 130º to 200º 9kt Gust 16kt >10km 1.78mm precipitation Broken Clouds 1900ft
Overcast 3700ft
1015 - KHYA 210756Z AUTO 15009G16KT 130V200 8SM BKN019 OVC037 16/15 A2999 RMK AO2 LTG DSNT S RAE48 SLP155 P0007 T01610150
MVFR 15.6°C / 14.4°C 150º 8kt 6400m Rain Mist 1.02mm precipitation Broken Clouds 2400ft
Broken Clouds 3200ft
Overcast 7500ft
- KHYA 210711Z AUTO 15008KT 4SM RA BR BKN024 BKN032 OVC075 16/14 A3000 RMK AO2 LTG DSNT S P0004 T01560144
MVFR 15°C / 13.9°C 140º 7kt 6400m Rain Mist 5.08mm precipitation Few Clouds 3300ft
Broken Clouds 7500ft
Overcast 11000ft
1015 - KHYA 210656Z AUTO 14007KT 4SM RA BR FEW033 BKN075 OVC110 15/14 A3000 RMK AO2 LTG DSNT S SLP159 P0020 T01500139
MVFR 13.9°C / 13.3°C 170º 6kt 6400m Light Rain Mist 2.03mm precipitation Scattered Clouds 400ft
Broken Clouds 3400ft
Overcast 8000ft
1016 - KHYA 210556Z AUTO 17006KT 4SM -RA BR SCT004 BKN034 OVC080 14/13 A3003 RMK AO2 SLP168 P0008 60009 T01390133 10139 20117 55008
LIFR 13.3°C / 12.2°C 110º 8kt 9700m Light Rain Mist 0.25mm precipitation Broken Clouds 400ft
Overcast 7500ft
1016 - KHYA 210456Z AUTO 11008KT 6SM -RA BR BKN004 OVC075 13/12 A3002 RMK AO2 RAB28 PRESFR SLP165 P0001 T01330122 401610100
LIFR 12.2°C / 11.1°C 140º 10kt >10km - Overcast 400ft - KHYA 210413Z AUTO 14010KT 10SM OVC004 12/11 A3005 RMK AO2 T01220111
IFR 12.2°C / 11.1°C 140º 6kt >10km - Overcast 500ft 1017 - KHYA 210356Z AUTO 14006KT 10SM OVC005 12/11 A3005 RMK AO2 SLP177 T01220111
IFR 12.8°C / 11.7°C 140º 10kt >10km - Broken Clouds 500ft
Broken Clouds 1300ft
Broken Clouds 12000ft
- KHYA 210336Z AUTO 14010KT 10SM BKN005 BKN013 BKN120 13/12 A3005 RMK AO2 T01280117
MVFR 12.2°C / 11.1°C 140º 7kt >10km - Few Clouds 500ft
Broken Clouds 1300ft
Broken Clouds 12000ft
- KHYA 210314Z AUTO 14007KT 10SM FEW005 BKN013 BKN120 12/11 A3004 RMK AO2 T01220111
MVFR 12.2°C / 11.1°C 130º 8kt >10km - Overcast 1300ft - KHYA 210304Z AUTO 13008KT 10SM OVC013 12/11 A3004 RMK AO2 T01220111
MVFR 12.2°C / 11.1°C variable 6kt >10km - Overcast 1500ft 1017 - KHYA 210256Z AUTO VRB06KT 10SM OVC015 12/11 A3005 RMK AO2 SLP177 T01220111 50002
MVFR 12.2°C / 10.6°C 160º 7kt >10km - Few Clouds 500ft
Overcast 1400ft
1018 - KHYA 210156Z 16007KT 10SM FEW005 OVC014 12/11 A3008 RMK AO2 SLP186 T01220106
VFR 12.2°C / 10.6°C variable 4kt >10km - Scattered Clouds 500ft
Broken Clouds 12000ft
1017 - KHYA 210056Z VRB04KT 10SM SCT005 BKN120 12/11 A3004 RMK AO2 SLP174 T01220106
MVFR 11.7°C / 10.6°C 130º 6kt >10km - Broken Clouds 1500ft - KHYA 210047Z 13006KT 10SM BKN015 12/11 A3005 RMK AO2 T01170106
MVFR 11.7°C / 10°C 130º 9kt >10km - Overcast 1900ft 1017 - KHYA 202356Z 13009KT 10SM OVC019 12/10 A3004 RMK AO2 SLP175 T01170100 10161 20117 53002
VFR 12.2°C / 10°C 140º 7kt >10km - Clear 1017 - KHYA 202256Z 14007KT 10SM CLR 12/10 A3004 RMK AO2 SLP174 T01220100
VFR 13.3°C / 10.6°C 140º 9kt >10km - Broken Clouds 10000ft 1017 - KHYA 202156Z 14009KT 10SM BKN100 13/11 A3004 RMK AO2 SLP173 T01330106
VFR 15°C / 11.7°C 160º 7kt >10km - Clear 1017 - KHYA 202056Z 16007KT 10SM CLR 15/12 A3004 RMK AO2 SLP172 T01500117 55004
IFR 15°C / 11.7°C 140º 6kt >10km - Broken Clouds 800ft 1017 - KHYA 201956Z 14006KT 10SM BKN008 15/12 A3003 RMK AO2 SLP171 T01500117
IFR 15°C / 11.7°C 160º 8kt >10km - Broken Clouds 800ft 1017 - KHYA 201856Z 16008KT 10SM BKN008 15/12 A3004 RMK AO2 SLP174 T01500117
IFR 15.6°C / 12.2°C 140º 7kt >10km - Broken Clouds 900ft 1017 - KHYA 201756Z 14007KT 10SM BKN009 16/12 A3005 RMK AO2 SLP176 T01560122 10161 20133 58002
IFR 16.1°C / 12.8°C 170º variable 130º to 210º 7kt >10km - Broken Clouds 900ft 1017 - KHYA 201656Z 17007KT 130V210 10SM BKN009 16/13 A3006 RMK AO2 SLP178 T01610128

LIFR

15°C / 14.4°C

[Viac]
Vietor variable 5kt Gust 16kt
Viditeľnosť 9700m
Počasie Mist
Oblaky Vertical Visibility of 0ft.
Overcast 3700ft
Tlak
Zmeniť -
Nespracované KHYA 210819Z AUTO VRB05G16KT 6SM BR BKN003 OVC037 15/14 A2998 RMK AO2 LTG DSNT SE T01500144

IFR

15.6°C / 14.4°C

[Viac]
Vietor 150º 9kt Gust 16kt
Viditeľnosť >10km
Počasie -
Oblaky Broken Clouds 500ft
Broken Clouds 1700ft
Overcast 3700ft
Tlak
Zmeniť -
Nespracované KHYA 210812Z AUTO 15009G16KT 7SM BKN005 BKN017 OVC037 16/14 A2998 RMK AO2 LTG DSNT SE AND S T01560144

MVFR

16.1°C / 15°C

[Viac]
Vietor 150º variable 130º to 200º 9kt Gust 16kt
Viditeľnosť >10km
Počasie 1.78mm precipitation
Oblaky Broken Clouds 1900ft
Overcast 3700ft
Tlak 1015
Zmeniť -
Nespracované KHYA 210756Z AUTO 15009G16KT 130V200 8SM BKN019 OVC037 16/15 A2999 RMK AO2 LTG DSNT S RAE48 SLP155 P0007 T01610150

MVFR

15.6°C / 14.4°C

[Viac]
Vietor 150º 8kt
Viditeľnosť 6400m
Počasie Rain Mist 1.02mm precipitation
Oblaky Broken Clouds 2400ft
Broken Clouds 3200ft
Overcast 7500ft
Tlak
Zmeniť -
Nespracované KHYA 210711Z AUTO 15008KT 4SM RA BR BKN024 BKN032 OVC075 16/14 A3000 RMK AO2 LTG DSNT S P0004 T01560144

MVFR

15°C / 13.9°C

[Viac]
Vietor 140º 7kt
Viditeľnosť 6400m
Počasie Rain Mist 5.08mm precipitation
Oblaky Few Clouds 3300ft
Broken Clouds 7500ft
Overcast 11000ft
Tlak 1015
Zmeniť -
Nespracované KHYA 210656Z AUTO 14007KT 4SM RA BR FEW033 BKN075 OVC110 15/14 A3000 RMK AO2 LTG DSNT S SLP159 P0020 T01500139

MVFR

13.9°C / 13.3°C

[Viac]
Vietor 170º 6kt
Viditeľnosť 6400m
Počasie Light Rain Mist 2.03mm precipitation
Oblaky Scattered Clouds 400ft
Broken Clouds 3400ft
Overcast 8000ft
Tlak 1016
Zmeniť -
Nespracované KHYA 210556Z AUTO 17006KT 4SM -RA BR SCT004 BKN034 OVC080 14/13 A3003 RMK AO2 SLP168 P0008 60009 T01390133 10139 20117 55008

LIFR

13.3°C / 12.2°C

[Viac]
Vietor 110º 8kt
Viditeľnosť 9700m
Počasie Light Rain Mist 0.25mm precipitation
Oblaky Broken Clouds 400ft
Overcast 7500ft
Tlak 1016
Zmeniť -
Nespracované KHYA 210456Z AUTO 11008KT 6SM -RA BR BKN004 OVC075 13/12 A3002 RMK AO2 RAB28 PRESFR SLP165 P0001 T01330122 401610100

LIFR

12.2°C / 11.1°C

[Viac]
Vietor 140º 10kt
Viditeľnosť >10km
Počasie -
Oblaky Overcast 400ft
Tlak
Zmeniť -
Nespracované KHYA 210413Z AUTO 14010KT 10SM OVC004 12/11 A3005 RMK AO2 T01220111

IFR

12.2°C / 11.1°C

[Viac]
Vietor 140º 6kt
Viditeľnosť >10km
Počasie -
Oblaky Overcast 500ft
Tlak 1017
Zmeniť -
Nespracované KHYA 210356Z AUTO 14006KT 10SM OVC005 12/11 A3005 RMK AO2 SLP177 T01220111

IFR

12.8°C / 11.7°C

[Viac]
Vietor 140º 10kt
Viditeľnosť >10km
Počasie -
Oblaky Broken Clouds 500ft
Broken Clouds 1300ft
Broken Clouds 12000ft
Tlak
Zmeniť -
Nespracované KHYA 210336Z AUTO 14010KT 10SM BKN005 BKN013 BKN120 13/12 A3005 RMK AO2 T01280117

MVFR

12.2°C / 11.1°C

[Viac]
Vietor 140º 7kt
Viditeľnosť >10km
Počasie -
Oblaky Few Clouds 500ft
Broken Clouds 1300ft
Broken Clouds 12000ft
Tlak
Zmeniť -
Nespracované KHYA 210314Z AUTO 14007KT 10SM FEW005 BKN013 BKN120 12/11 A3004 RMK AO2 T01220111

MVFR

12.2°C / 11.1°C

[Viac]
Vietor 130º 8kt
Viditeľnosť >10km
Počasie -
Oblaky Overcast 1300ft
Tlak
Zmeniť -
Nespracované KHYA 210304Z AUTO 13008KT 10SM OVC013 12/11 A3004 RMK AO2 T01220111

MVFR

12.2°C / 11.1°C

[Viac]
Vietor variable 6kt
Viditeľnosť >10km
Počasie -
Oblaky Overcast 1500ft
Tlak 1017
Zmeniť -
Nespracované KHYA 210256Z AUTO VRB06KT 10SM OVC015 12/11 A3005 RMK AO2 SLP177 T01220111 50002

MVFR

12.2°C / 10.6°C

[Viac]
Vietor 160º 7kt
Viditeľnosť >10km
Počasie -
Oblaky Few Clouds 500ft
Overcast 1400ft
Tlak 1018
Zmeniť -
Nespracované KHYA 210156Z 16007KT 10SM FEW005 OVC014 12/11 A3008 RMK AO2 SLP186 T01220106

VFR

12.2°C / 10.6°C

[Viac]
Vietor variable 4kt
Viditeľnosť >10km
Počasie -
Oblaky Scattered Clouds 500ft
Broken Clouds 12000ft
Tlak 1017
Zmeniť -
Nespracované KHYA 210056Z VRB04KT 10SM SCT005 BKN120 12/11 A3004 RMK AO2 SLP174 T01220106

MVFR

11.7°C / 10.6°C

[Viac]
Vietor 130º 6kt
Viditeľnosť >10km
Počasie -
Oblaky Broken Clouds 1500ft
Tlak
Zmeniť -
Nespracované KHYA 210047Z 13006KT 10SM BKN015 12/11 A3005 RMK AO2 T01170106

MVFR

11.7°C / 10°C

[Viac]
Vietor 130º 9kt
Viditeľnosť >10km
Počasie -
Oblaky Overcast 1900ft
Tlak 1017
Zmeniť -
Nespracované KHYA 202356Z 13009KT 10SM OVC019 12/10 A3004 RMK AO2 SLP175 T01170100 10161 20117 53002

VFR

12.2°C / 10°C

[Viac]
Vietor 140º 7kt
Viditeľnosť >10km
Počasie -
Oblaky Clear
Tlak 1017
Zmeniť -
Nespracované KHYA 202256Z 14007KT 10SM CLR 12/10 A3004 RMK AO2 SLP174 T01220100

VFR

13.3°C / 10.6°C

[Viac]
Vietor 140º 9kt
Viditeľnosť >10km
Počasie -
Oblaky Broken Clouds 10000ft
Tlak 1017
Zmeniť -
Nespracované KHYA 202156Z 14009KT 10SM BKN100 13/11 A3004 RMK AO2 SLP173 T01330106

VFR

15°C / 11.7°C

[Viac]
Vietor 160º 7kt
Viditeľnosť >10km
Počasie -
Oblaky Clear
Tlak 1017
Zmeniť -
Nespracované KHYA 202056Z 16007KT 10SM CLR 15/12 A3004 RMK AO2 SLP172 T01500117 55004

IFR

15°C / 11.7°C

[Viac]
Vietor 140º 6kt
Viditeľnosť >10km
Počasie -
Oblaky Broken Clouds 800ft
Tlak 1017
Zmeniť -
Nespracované KHYA 201956Z 14006KT 10SM BKN008 15/12 A3003 RMK AO2 SLP171 T01500117

IFR

15°C / 11.7°C

[Viac]
Vietor 160º 8kt
Viditeľnosť >10km
Počasie -
Oblaky Broken Clouds 800ft
Tlak 1017
Zmeniť -
Nespracované KHYA 201856Z 16008KT 10SM BKN008 15/12 A3004 RMK AO2 SLP174 T01500117

IFR

15.6°C / 12.2°C

[Viac]
Vietor 140º 7kt
Viditeľnosť >10km
Počasie -
Oblaky Broken Clouds 900ft
Tlak 1017
Zmeniť -
Nespracované KHYA 201756Z 14007KT 10SM BKN009 16/12 A3005 RMK AO2 SLP176 T01560122 10161 20133 58002

IFR

16.1°C / 12.8°C

[Viac]
Vietor 170º variable 130º to 210º 7kt
Viditeľnosť >10km
Počasie -
Oblaky Broken Clouds 900ft
Tlak 1017
Zmeniť -
Nespracované KHYA 201656Z 17007KT 130V210 10SM BKN009 16/13 A3006 RMK AO2 SLP178 T01610128

Správy TAF pre lokalitu Barnstable (KHYA)

From till


From till Wind 140º 14kt. Gust 25kt. Visibility 8000m. Light Showers Rain . Overcast 800ft.
Temporarly from till Visibility 3200m. Heavy Thunderstorm Rain Mist . Overcast 400ft.
From till Wind 160º 13kt. Gust 22kt. Visibility 804.670m. Fog in the Vicinity Showers . Overcast 300ft.
From till Wind 180º 10kt. Visibility 402.335m. Fog . Overcast 300ft.
From till Wind 210º 9kt. Visibility 4800m. Mist . Broken Clouds 300ft.
From till Wind 200º 10kt. Visibility 10km or more. Scattered Clouds 1000ft.
From till Wind 220º 6kt. Visibility 1600m. Mist . Overcast 300ft.

Nespracované: KHYA 210520Z 2106/2206 14014G25KT 5SM -SHRA OVC008 TEMPO 2106/2109 2SM +TSRA BR OVC004CB FM210900 16013G22KT 1/2SM FG VCSH OVC003 FM211200 18010KT 1/4SM FG OVC003 FM211500 21009KT 3SM BR BKN003 FM211900 20010KT P6SM SCT010 FM220100 22006KT 1SM BR OVC003

Radar a krátkodobá predpoveď zrážok pre Barnstable

Mrholenie
Slabý
Mierne
Ťažké
Veľmi ťažké
Krúpy

Značka polohy je umiestnená na Barnstable. Táto animácia ukazuje zrážky pozorované radarom za poslednú hodinu a tiež 1h predpoveď. Mrholenie alebo slabé sneženie môže byť pre radar neviditeľné. Intenzita zrážok je farebne označená od svetlomodrej po oranžovú.

Aktuálne satelitné snímky pre lokalitu Barnstable, Spojené štáty americké

Značka polohy je umiestnená naBarnstable. [Viac]

Satelitné snímky zhotovované v reálnom čase využívajú viditeľné svetlo počas dňa a infračervené žiarenie počas noci. Vzhľadom na to, že infračervené žiarenie zisťuje teplotné rozdiely, snímka v noci nie je tmavá. Nízke oblaky a hmlu je, žiaľ, ťažké odlíšiť od prízemných teplôt, preto môžu byť počas noci takmer neviditeľné. Meteosat satelitné snímky pre Európu sú aktualizované v reálnom čase každých 5 minút. Snímky z GOES-16/GOES-17 (Severná a Južná Amerika) a Himawari (Ázia) sú aktualizované každých 10 minút.

Späť nahor